createdAt,value
2023-02-07T00:01:25.814Z,75.96
2023-02-07T00:03:55.448Z,76.49
2023-02-07T00:06:28.807Z,76.22
2023-02-07T00:08:56.511Z,76.58
2023-02-07T00:11:24.981Z,76.63
2023-02-07T00:13:56.273Z,76.68
2023-02-07T00:16:23.459Z,76.41
2023-02-07T00:18:52.664Z,76.99
2023-02-07T00:21:21.525Z,76.83
2023-02-07T00:23:48.866Z,76.61
2023-02-07T00:26:17.623Z,76.93
2023-02-07T00:28:45.409Z,76.75
2023-02-07T00:31:16.489Z,76.17
2023-02-07T00:33:45.448Z,75.64
2023-02-07T00:36:18.576Z,75.08
2023-02-07T00:38:46.253Z,75.43
2023-02-07T00:41:18.878Z,75.77
2023-02-07T00:43:47.773Z,75.57
2023-02-07T00:46:15.898Z,75.34
2023-02-07T00:48:43.468Z,75.68
2023-02-07T00:51:12.400Z,75.13
2023-02-07T00:53:40.584Z,75.48
2023-02-07T00:56:08.880Z,76.11
2023-02-07T00:58:36.725Z,75.86
2023-02-07T01:01:05.416Z,75.53
2023-02-07T01:03:33.471Z,75.55
2023-02-07T01:06:00.522Z,76.11
2023-02-07T01:08:28.190Z,76.33
2023-02-07T01:10:55.848Z,76.03
2023-02-07T01:13:23.291Z,75.80
2023-02-07T01:15:50.863Z,75.87
2023-02-07T01:18:17.851Z,75.89
2023-02-07T01:20:45.420Z,76.15
2023-02-07T01:23:14.250Z,76.19
2023-02-07T01:25:44.413Z,75.69
2023-02-07T01:28:12.429Z,75.70
2023-02-07T01:30:41.180Z,75.98
2023-02-07T01:33:08.639Z,75.31
2023-02-07T01:35:37.532Z,75.55
2023-02-07T01:38:05.448Z,76.06
2023-02-07T01:40:32.497Z,76.06
2023-02-07T01:42:59.574Z,76.39
2023-02-07T01:45:37.387Z,75.72
2023-02-07T01:48:20.390Z,75.34
2023-02-07T01:50:50.008Z,76.00
2023-02-07T01:53:22.772Z,76.06
2023-02-07T01:55:52.080Z,75.56
2023-02-07T01:58:19.684Z,75.47
2023-02-07T02:00:47.367Z,76.04
2023-02-07T02:03:14.435Z,76.56
2023-02-07T02:05:43.609Z,76.70
2023-02-07T02:08:11.044Z,76.73
2023-02-07T02:10:43.973Z,76.57
2023-02-07T02:13:25.204Z,76.54
2023-02-07T02:16:37.454Z,76.27
2023-02-07T02:19:23.748Z,76.56
2023-02-07T02:22:28.005Z,76.67
2023-02-07T02:25:03.820Z,76.29
2023-02-07T02:28:08.053Z,75.94
2023-02-07T02:31:09.619Z,76.54
2023-02-07T02:33:42.443Z,76.54
2023-02-07T02:36:42.152Z,76.79
2023-02-07T02:39:32.673Z,76.81
2023-02-07T02:42:11.490Z,76.20
2023-02-07T02:44:50.245Z,75.76
2023-02-07T02:47:20.430Z,76.48
2023-02-07T02:49:49.222Z,76.68
2023-02-07T02:52:16.743Z,76.51
2023-02-07T02:54:44.231Z,76.03
2023-02-07T02:57:51.443Z,76.09
2023-02-07T03:00:36.609Z,76.50
2023-02-07T03:03:28.011Z,76.51
2023-02-07T03:06:04.221Z,76.96
2023-02-07T03:08:52.581Z,76.45
2023-02-07T03:11:23.136Z,76.75
2023-02-07T03:14:14.481Z,76.93
2023-02-07T03:17:01.560Z,77.53
2023-02-07T03:19:37.824Z,77.29
2023-02-07T03:22:13.522Z,77.82
2023-02-07T03:24:48.294Z,77.64
2023-02-07T03:27:20.159Z,76.73
2023-02-07T03:29:50.961Z,76.89
2023-02-07T03:32:20.808Z,77.06
2023-02-07T03:34:56.885Z,76.84
2023-02-07T03:37:29.924Z,77.44
2023-02-07T03:39:57.446Z,77.11
2023-02-07T03:42:37.367Z,76.70
2023-02-07T03:45:08.409Z,76.62
2023-02-07T03:47:35.424Z,76.69
2023-02-07T03:50:02.781Z,76.88
2023-02-07T03:52:29.821Z,76.85
2023-02-07T03:54:56.767Z,76.60
2023-02-07T03:57:23.845Z,76.22
2023-02-07T03:59:51.264Z,76.40
2023-02-07T04:02:18.939Z,76.00
2023-02-07T04:04:45.864Z,75.51
2023-02-07T04:07:13.427Z,75.62
2023-02-07T04:09:40.372Z,76.03
2023-02-07T04:12:07.850Z,76.31
2023-02-07T04:14:34.870Z,76.71
2023-02-07T04:17:01.911Z,76.67
2023-02-07T04:19:29.265Z,75.88
2023-02-07T04:21:56.312Z,75.89
2023-02-07T04:24:23.669Z,76.64
2023-02-07T04:26:51.013Z,76.74
2023-02-07T04:29:18.009Z,76.71
2023-02-07T04:31:45.577Z,76.76
2023-02-07T04:34:13.480Z,75.87
2023-02-07T04:36:40.761Z,75.88
2023-02-07T04:39:18.322Z,75.66
2023-02-07T04:41:56.054Z,75.90
2023-02-07T04:44:23.135Z,76.52
2023-02-07T04:46:50.057Z,76.75
2023-02-07T04:49:17.354Z,76.66
2023-02-07T04:51:44.605Z,76.44
2023-02-07T04:54:12.212Z,76.28
2023-02-07T04:56:39.306Z,76.27
2023-02-07T04:59:06.254Z,76.62
2023-02-07T05:01:33.978Z,76.38
2023-02-07T05:04:01.172Z,76.57
2023-02-07T05:06:28.416Z,77.09
2023-02-07T05:08:55.459Z,76.97
2023-02-07T05:11:22.406Z,77.15
2023-02-07T05:13:59.788Z,78.08
2023-02-07T05:16:26.857Z,77.51
2023-02-07T05:18:53.884Z,77.57
2023-02-07T05:21:20.946Z,78.01
2023-02-07T05:23:48.167Z,78.04
2023-02-07T05:26:15.600Z,77.60
2023-02-07T05:28:42.721Z,78.40
2023-02-07T05:31:10.622Z,78.29
2023-02-07T05:33:37.591Z,78.03
2023-02-07T05:36:05.651Z,78.37
2023-02-07T05:38:32.959Z,78.19
2023-02-07T05:41:00.469Z,77.92
2023-02-07T05:43:27.609Z,78.37
2023-02-07T05:45:54.977Z,78.06
2023-02-07T05:48:22.111Z,77.61
2023-02-07T05:50:49.151Z,77.12
2023-02-07T05:53:16.475Z,77.23
2023-02-07T05:55:43.657Z,77.21
2023-02-07T05:58:10.710Z,77.26
2023-02-07T06:00:37.643Z,77.19
2023-02-07T06:03:04.987Z,77.20
2023-02-07T06:05:33.567Z,77.09
2023-02-07T06:08:00.731Z,77.02
2023-02-07T06:10:28.232Z,77.16
2023-02-07T06:12:55.431Z,77.10
2023-02-07T06:15:22.461Z,77.21
2023-02-07T06:17:49.723Z,77.20
2023-02-07T06:20:16.901Z,77.57
2023-02-07T06:22:44.114Z,77.24
2023-02-07T06:25:12.155Z,77.32
2023-02-07T06:27:41.444Z,77.85
2023-02-07T06:30:11.048Z,77.96
2023-02-07T06:32:38.033Z,78.07
2023-02-07T06:35:06.598Z,77.85
2023-02-07T06:37:33.788Z,78.35
2023-02-07T06:40:00.649Z,78.75
2023-02-07T06:42:27.643Z,78.69
2023-02-07T06:44:54.634Z,78.42
2023-02-07T06:47:22.053Z,78.63
2023-02-07T06:49:49.084Z,79.01
2023-02-07T06:52:16.850Z,78.81
2023-02-07T06:54:43.899Z,78.69
2023-02-07T06:57:11.151Z,78.98
2023-02-07T06:59:38.294Z,79.14
2023-02-07T07:02:05.649Z,78.57
2023-02-07T07:04:32.705Z,78.53
2023-02-07T07:06:59.736Z,78.64
2023-02-07T07:09:26.717Z,79.12
2023-02-07T07:11:54.160Z,79.31
2023-02-07T07:14:21.588Z,79.03
2023-02-07T07:16:49.204Z,78.65
2023-02-07T07:19:16.292Z,78.82
2023-02-07T07:21:43.292Z,78.86
2023-02-07T07:24:10.803Z,79.14
2023-02-07T07:26:48.981Z,79.09
2023-02-07T07:29:18.669Z,78.57
2023-02-07T07:31:47.023Z,78.34
2023-02-07T07:34:14.803Z,78.43
2023-02-07T07:36:42.239Z,78.69
2023-02-07T07:39:09.550Z,78.34
2023-02-07T07:41:36.900Z,78.32
2023-02-07T07:44:04.051Z,78.01
2023-02-07T07:46:31.136Z,78.28
2023-02-07T07:48:58.397Z,79.16
2023-02-07T07:51:25.497Z,79.04
2023-02-07T07:53:52.646Z,78.59
2023-02-07T07:56:20.427Z,78.57
2023-02-07T07:58:49.348Z,78.29
2023-02-07T08:01:17.153Z,77.98
2023-02-07T08:03:44.310Z,78.01
2023-02-07T08:06:11.513Z,78.66
2023-02-07T08:08:38.629Z,78.64
2023-02-07T08:11:08.983Z,78.83
2023-02-07T08:13:36.393Z,78.75
2023-02-07T08:16:04.905Z,78.75
2023-02-07T08:18:32.217Z,78.03
2023-02-07T08:20:59.513Z,78.20
2023-02-07T08:23:26.496Z,78.22
2023-02-07T08:25:53.550Z,77.48
2023-02-07T08:28:21.218Z,77.89
2023-02-07T08:30:48.665Z,78.46
2023-02-07T08:33:17.235Z,77.99
2023-02-07T08:35:44.896Z,77.59
2023-02-07T08:38:12.668Z,77.86
2023-02-07T08:40:40.107Z,78.34
2023-02-07T08:43:12.687Z,78.54
2023-02-07T08:45:48.950Z,78.65
2023-02-07T08:48:19.955Z,78.99
2023-02-07T08:50:46.938Z,79.12
2023-02-07T08:53:14.543Z,78.84
2023-02-07T08:55:42.757Z,78.85
2023-02-07T08:58:10.492Z,79.35
2023-02-07T09:00:38.583Z,79.52
2023-02-07T09:03:06.456Z,79.23
2023-02-07T09:05:34.148Z,79.50
2023-02-07T09:08:04.324Z,79.31
2023-02-07T09:10:32.302Z,79.23
2023-02-07T09:12:59.242Z,79.44
2023-02-07T09:15:26.751Z,79.72
2023-02-07T09:17:54.229Z,79.26
2023-02-07T09:20:21.709Z,79.38
2023-02-07T09:23:07.390Z,79.18
2023-02-07T09:25:34.432Z,79.39
2023-02-07T09:28:01.811Z,79.42
2023-02-07T09:30:29.288Z,79.31
2023-02-07T09:32:58.484Z,79.74
2023-02-07T09:35:26.100Z,79.68
2023-02-07T09:37:54.709Z,79.63
2023-02-07T09:40:22.855Z,79.61
2023-02-07T09:43:03.099Z,79.69
2023-02-07T09:45:35.102Z,79.83
2023-02-07T09:48:15.122Z,79.32
2023-02-07T09:50:52.149Z,79.34
2023-02-07T09:53:34.685Z,79.44
2023-02-07T09:56:03.287Z,79.47
2023-02-07T09:59:01.250Z,79.45
2023-02-07T10:01:34.897Z,79.47
2023-02-07T10:04:23.108Z,79.50
2023-02-07T10:06:54.238Z,79.88
2023-02-07T10:09:53.477Z,79.89
2023-02-07T10:12:32.263Z,80.04
2023-02-07T10:15:25.689Z,79.95
2023-02-07T10:18:06.894Z,80.11
2023-02-07T10:20:41.805Z,79.78
2023-02-07T10:23:39.022Z,79.79
2023-02-07T10:26:30.794Z,79.84
2023-02-07T10:29:08.488Z,79.74
2023-02-07T10:31:39.551Z,79.89
2023-02-07T10:34:19.089Z,79.93
2023-02-07T10:36:50.004Z,79.44
2023-02-07T10:39:35.317Z,79.42
2023-02-07T10:42:02.526Z,79.01
2023-02-07T10:44:30.062Z,78.83
2023-02-07T10:47:03.034Z,78.65
2023-02-07T10:49:33.535Z,78.79
2023-02-07T10:52:14.153Z,78.39
2023-02-07T10:54:59.559Z,78.41
2023-02-07T10:57:28.513Z,78.27
2023-02-07T11:00:27.822Z,78.56
2023-02-07T11:03:01.387Z,78.66
2023-02-07T11:05:32.457Z,78.25
2023-02-07T11:08:01.310Z,78.50
2023-02-07T11:10:40.114Z,78.72
2023-02-07T11:13:15.157Z,78.25
2023-02-07T11:15:53.536Z,78.42
2023-02-07T11:18:30.286Z,78.17
2023-02-07T11:20:58.073Z,78.27
2023-02-07T11:23:26.592Z,77.90
2023-02-07T11:25:56.826Z,77.36
2023-02-07T11:28:33.274Z,77.18
2023-02-07T11:31:15.664Z,77.38
2023-02-07T11:33:43.584Z,77.32
2023-02-07T11:36:32.025Z,77.10
2023-02-07T11:39:00.671Z,76.74
2023-02-07T11:41:33.150Z,76.82
2023-02-07T11:44:15.768Z,76.35
2023-02-07T11:46:48.432Z,76.46
2023-02-07T11:49:40.812Z,76.17
2023-02-07T11:52:09.529Z,75.98
2023-02-07T11:54:37.248Z,76.30
2023-02-07T11:57:07.483Z,75.94
2023-02-07T11:59:35.369Z,76.05
2023-02-07T12:02:27.708Z,76.16
2023-02-07T12:04:57.994Z,75.98
2023-02-07T12:07:41.292Z,75.68
2023-02-07T12:10:16.913Z,75.84
2023-02-07T12:12:56.728Z,75.94
2023-02-07T12:15:33.771Z,75.94
2023-02-07T12:18:04.220Z,76.20
2023-02-07T12:21:00.450Z,76.16
2023-02-07T12:23:47.365Z,76.18
2023-02-07T12:26:27.715Z,76.27
2023-02-07T12:29:44.937Z,76.09
2023-02-07T12:32:31.236Z,76.24
2023-02-07T12:35:32.250Z,76.47
2023-02-07T12:38:06.217Z,76.24
2023-02-07T12:40:51.998Z,76.05
2023-02-07T12:43:24.773Z,76.39
2023-02-07T12:46:01.313Z,76.45
2023-02-07T12:48:52.111Z,76.45
2023-02-07T12:51:34.212Z,76.77
2023-02-07T12:54:16.201Z,76.77
2023-02-07T12:56:46.097Z,77.12
2023-02-07T12:59:19.025Z,77.15
2023-02-07T13:01:53.495Z,76.92
2023-02-07T13:04:32.646Z,76.60
2023-02-07T13:07:24.369Z,76.98
2023-02-07T13:09:56.286Z,76.77
2023-02-07T13:12:47.450Z,76.81
2023-02-07T13:15:16.735Z,76.85
2023-02-07T13:17:53.567Z,77.11
2023-02-07T13:20:42.255Z,77.02
2023-02-07T13:23:25.726Z,76.99
2023-02-07T13:26:04.401Z,77.02
2023-02-07T13:29:13.168Z,76.99
2023-02-07T13:31:47.194Z,77.11
2023-02-07T13:34:24.693Z,76.72
2023-02-07T13:36:53.578Z,77.14
2023-02-07T13:39:39.294Z,77.30
2023-02-07T13:42:18.320Z,77.06
2023-02-07T13:45:20.048Z,77.48
2023-02-07T13:48:06.848Z,77.26
2023-02-07T13:50:40.520Z,77.26
2023-02-07T13:53:22.282Z,77.43
2023-02-07T13:55:50.245Z,77.55
2023-02-07T13:58:54.613Z,77.56
2023-02-07T14:01:25.469Z,77.66
2023-02-07T14:04:13.572Z,77.77
2023-02-07T14:06:46.137Z,77.89
2023-02-07T14:09:27.726Z,77.66
2023-02-07T14:12:02.011Z,77.56
2023-02-07T14:14:32.023Z,77.68
2023-02-07T14:17:03.665Z,77.72
2023-02-07T14:19:44.714Z,77.31
2023-02-07T14:22:22.754Z,77.40
2023-02-07T14:25:20.230Z,77.17
2023-02-07T14:27:53.329Z,77.21
2023-02-07T14:30:49.614Z,77.12
2023-02-07T14:33:21.686Z,77.28
2023-02-07T14:36:13.207Z,76.82
2023-02-07T14:38:46.392Z,77.15
2023-02-07T14:41:15.649Z,77.28
2023-02-07T14:44:08.129Z,77.14
2023-02-07T14:46:42.407Z,77.32
2023-02-07T14:49:33.009Z,77.26
2023-02-07T14:52:08.288Z,77.45
2023-02-07T14:54:43.317Z,77.59
2023-02-07T14:57:45.983Z,77.61
2023-02-07T15:00:13.053Z,77.89
2023-02-07T15:03:05.796Z,78.01
2023-02-07T15:05:36.627Z,77.86
2023-02-07T15:08:03.784Z,78.15
2023-02-07T15:10:34.095Z,78.07
2023-02-07T15:13:02.933Z,78.20
2023-02-07T15:15:36.310Z,78.03
2023-02-07T15:18:03.653Z,78.21
2023-02-07T15:20:34.865Z,78.24
2023-02-07T15:23:07.750Z,78.41
2023-02-07T15:25:36.448Z,78.21
2023-02-07T15:28:26.538Z,78.32
2023-02-07T15:31:13.642Z,78.23
2023-02-07T15:34:05.467Z,77.97
2023-02-07T15:36:38.711Z,78.15
2023-02-07T15:39:15.420Z,77.99
2023-02-07T15:41:45.980Z,77.97
2023-02-07T15:44:30.927Z,77.96
2023-02-07T15:47:01.175Z,77.83
2023-02-07T15:49:35.963Z,78.05
2023-02-07T15:52:20.837Z,78.42
2023-02-07T15:54:51.274Z,78.73
2023-02-07T15:57:41.027Z,78.98
2023-02-07T16:00:08.620Z,79.02
2023-02-07T16:02:43.377Z,79.07
2023-02-07T16:05:11.593Z,79.10
2023-02-07T16:07:40.357Z,79.34
2023-02-07T16:10:16.789Z,79.53
2023-02-07T16:12:50.234Z,79.60
2023-02-07T16:15:30.293Z,79.65
2023-02-07T16:17:57.228Z,79.75
2023-02-07T16:20:26.707Z,80.35
2023-02-07T16:23:01.145Z,80.80
2023-02-07T16:25:34.971Z,80.93
2023-02-07T16:28:08.681Z,80.68
2023-02-07T16:30:38.220Z,80.37
2023-02-07T16:33:12.990Z,80.26
2023-02-07T16:35:40.178Z,80.17
2023-02-07T16:38:07.612Z,80.29
2023-02-07T16:40:35.042Z,80.24
2023-02-07T16:43:03.102Z,80.05
2023-02-07T16:45:30.516Z,80.13
2023-02-07T16:47:59.616Z,80.55
2023-02-07T16:50:29.874Z,80.46
2023-02-07T16:52:58.096Z,80.80
2023-02-07T16:55:27.785Z,81.34
2023-02-07T16:57:57.397Z,81.29
2023-02-07T17:00:26.499Z,81.29
2023-02-07T17:02:54.021Z,81.64
2023-02-07T17:05:22.911Z,81.60
2023-02-07T17:07:50.986Z,82.00
2023-02-07T17:10:30.687Z,81.86
2023-02-07T17:12:58.337Z,82.02
2023-02-07T17:15:25.414Z,82.21
2023-02-07T17:17:54.571Z,82.08
2023-02-07T17:20:29.138Z,82.16
2023-02-07T17:22:56.905Z,82.06
2023-02-07T17:25:27.861Z,81.86
2023-02-07T17:27:55.099Z,81.78
2023-02-07T17:30:25.895Z,81.72
2023-02-07T17:32:52.955Z,81.79
2023-02-07T17:35:21.128Z,81.76
2023-02-07T17:38:02.100Z,81.62
2023-02-07T17:40:36.316Z,81.68
2023-02-07T17:43:04.794Z,81.52
2023-02-07T17:45:33.859Z,81.48
2023-02-07T17:48:01.981Z,81.46
2023-02-07T17:50:33.184Z,81.24
2023-02-07T17:53:03.862Z,81.49
2023-02-07T17:55:32.809Z,81.37
2023-02-07T17:58:00.976Z,81.50
2023-02-07T18:00:32.327Z,81.53
2023-02-07T18:02:59.738Z,81.61
2023-02-07T18:05:27.120Z,81.81
2023-02-07T18:07:54.481Z,81.92
2023-02-07T18:10:23.367Z,82.10
2023-02-07T18:12:50.933Z,82.15
2023-02-07T18:15:19.195Z,82.29
2023-02-07T18:17:47.989Z,82.44
2023-02-07T18:20:24.054Z,82.50
2023-02-07T18:22:52.798Z,82.40
2023-02-07T18:25:19.891Z,82.62
2023-02-07T18:27:48.383Z,82.62
2023-02-07T18:30:15.751Z,82.51
2023-02-07T18:32:43.336Z,82.61
2023-02-07T18:35:11.119Z,82.72
2023-02-07T18:37:38.735Z,82.71
2023-02-07T18:40:07.789Z,82.33
2023-02-07T18:42:35.261Z,82.19
2023-02-07T18:45:03.736Z,82.16
2023-02-07T18:47:32.793Z,82.54
2023-02-07T18:50:00.001Z,82.70
2023-02-07T18:52:26.999Z,82.68
2023-02-07T18:54:54.049Z,83.12
2023-02-07T18:57:20.947Z,83.07
2023-02-07T18:59:48.033Z,82.79
2023-02-07T19:02:15.154Z,82.87
2023-02-07T19:04:42.332Z,82.87
2023-02-07T19:07:09.885Z,82.99
2023-02-07T19:09:37.189Z,83.31
2023-02-07T19:12:04.645Z,83.27
2023-02-07T19:14:32.414Z,83.56
2023-02-07T19:17:00.565Z,83.86
2023-02-07T19:19:29.928Z,84.16
2023-02-07T19:21:58.152Z,84.20
2023-02-07T19:24:25.855Z,84.17
2023-02-07T19:26:59.110Z,84.13
2023-02-07T19:29:29.782Z,83.92
2023-02-07T19:32:01.021Z,83.91
2023-02-07T19:34:29.498Z,83.93
2023-02-07T19:36:57.608Z,83.51
2023-02-07T19:39:24.941Z,83.43
2023-02-07T19:41:51.962Z,83.45
2023-02-07T19:44:18.804Z,83.49
2023-02-07T19:46:46.397Z,83.47
2023-02-07T19:49:14.396Z,83.49
2023-02-07T19:51:41.578Z,83.21
2023-02-07T19:54:09.283Z,83.12
2023-02-07T19:56:37.839Z,82.87
2023-02-07T19:59:06.961Z,83.08
2023-02-07T20:01:37.716Z,82.93
2023-02-07T20:04:06.035Z,82.98
2023-02-07T20:06:35.525Z,83.08
2023-02-07T20:09:05.448Z,83.03
2023-02-07T20:11:32.892Z,83.02
2023-02-07T20:14:03.771Z,83.13
2023-02-07T20:16:32.706Z,83.28
2023-02-07T20:19:00.717Z,83.21
2023-02-07T20:21:30.827Z,83.44
2023-02-07T20:23:58.414Z,83.48
2023-02-07T20:26:26.801Z,83.55
2023-02-07T20:28:55.131Z,83.56
2023-02-07T20:31:24.705Z,83.58
2023-02-07T20:33:53.113Z,83.50
2023-02-07T20:36:21.865Z,83.65
2023-02-07T20:38:49.358Z,83.43
2023-02-07T20:41:31.325Z,83.50
2023-02-07T20:44:08.253Z,83.18
2023-02-07T20:46:36.828Z,83.05
2023-02-07T20:49:07.443Z,82.80
2023-02-07T20:51:35.212Z,83.18
2023-02-07T20:54:04.238Z,82.81
2023-02-07T20:56:32.901Z,82.86
2023-02-07T20:59:01.033Z,83.02
2023-02-07T21:01:30.780Z,83.11
2023-02-07T21:04:01.366Z,83.02
2023-02-07T21:06:29.355Z,82.97
2023-02-07T21:09:02.103Z,82.93
2023-02-07T21:11:34.163Z,83.16
2023-02-07T21:14:05.737Z,83.23
2023-02-07T21:16:33.974Z,83.11
2023-02-07T21:19:01.834Z,83.23
2023-02-07T21:21:29.677Z,83.40
2023-02-07T21:23:58.096Z,83.35
2023-02-07T21:26:27.205Z,83.35
2023-02-07T21:29:02.163Z,83.30
2023-02-07T21:31:31.142Z,83.28
2023-02-07T21:33:58.881Z,83.17
2023-02-07T21:36:31.132Z,83.33
2023-02-07T21:39:00.244Z,83.13
2023-02-07T21:41:29.312Z,83.04
2023-02-07T21:43:57.500Z,82.86
2023-02-07T21:46:27.826Z,82.92
2023-02-07T21:49:01.981Z,82.83
2023-02-07T21:51:31.598Z,82.96
2023-02-07T21:53:59.422Z,82.89
2023-02-07T21:56:30.804Z,82.95
2023-02-07T21:59:00.338Z,83.01
2023-02-07T22:01:29.254Z,83.09
2023-02-07T22:03:59.453Z,83.30
2023-02-07T22:06:27.784Z,83.38
2023-02-07T22:08:57.794Z,83.40
2023-02-07T22:11:28.916Z,83.40
2023-02-07T22:13:56.039Z,83.48
2023-02-07T22:16:26.110Z,83.42
2023-02-07T22:18:54.449Z,83.54
2023-02-07T22:21:27.869Z,83.50
2023-02-07T22:23:56.244Z,83.47
2023-02-07T22:26:24.512Z,83.69
2023-02-07T22:28:52.341Z,83.52
2023-02-07T22:31:25.186Z,83.43
2023-02-07T22:33:54.490Z,83.49
2023-02-07T22:36:25.397Z,83.48
2023-02-07T22:38:53.668Z,83.29
2023-02-07T22:41:21.809Z,83.45
2023-02-07T22:43:49.031Z,83.41
2023-02-07T22:46:18.917Z,83.28
2023-02-07T22:48:46.514Z,83.33
2023-02-07T22:51:18.637Z,83.15
2023-02-07T22:53:46.233Z,83.22
2023-02-07T22:56:13.763Z,83.21
2023-02-07T22:58:41.986Z,83.30
2023-02-07T23:01:37.121Z,83.37
2023-02-07T23:04:06.389Z,83.58
2023-02-07T23:06:34.140Z,83.64
2023-02-07T23:09:02.252Z,83.47
2023-02-07T23:11:29.259Z,83.80
2023-02-07T23:13:56.286Z,83.77
2023-02-07T23:16:26.200Z,83.54
2023-02-07T23:18:56.726Z,83.37
2023-02-07T23:21:25.687Z,83.34
2023-02-07T23:23:53.884Z,83.59
2023-02-07T23:26:24.011Z,83.52
2023-02-07T23:28:52.515Z,83.46
2023-02-07T23:31:21.819Z,83.23
2023-02-07T23:33:50.152Z,83.22
2023-02-07T23:36:17.958Z,83.12
2023-02-07T23:38:46.578Z,83.11
2023-02-07T23:41:13.959Z,83.41
2023-02-07T23:43:41.360Z,82.95
2023-02-07T23:46:09.382Z,83.11
2023-02-07T23:48:38.773Z,83.07
2023-02-07T23:51:07.284Z,83.45
2023-02-07T23:53:34.904Z,83.54
2023-02-07T23:56:03.525Z,83.55
2023-02-07T23:58:31.256Z,83.60
